createdAt,value
2022-12-09T00:00:41.234Z,19.76
2022-12-09T00:01:41.417Z,19.73
2022-12-09T00:02:41.649Z,19.76
2022-12-09T00:03:41.434Z,19.74
2022-12-09T00:04:41.426Z,19.74
2022-12-09T00:05:41.261Z,19.76
2022-12-09T00:06:41.161Z,19.76
2022-12-09T00:07:41.343Z,19.76
2022-12-09T00:08:41.222Z,19.76
2022-12-09T00:09:41.302Z,19.77
2022-12-09T00:10:41.134Z,19.74
2022-12-09T00:11:41.153Z,19.74
2022-12-09T00:12:41.099Z,19.76
2022-12-09T00:13:41.187Z,19.77
2022-12-09T00:14:41.095Z,19.74
2022-12-09T00:15:41.156Z,19.74
2022-12-09T00:16:41.276Z,19.74
2022-12-09T00:17:41.045Z,19.74
2022-12-09T00:18:41.246Z,19.74
2022-12-09T00:19:41.202Z,19.74
2022-12-09T00:20:41.004Z,19.74
2022-12-09T00:21:40.999Z,19.73
2022-12-09T00:22:41.302Z,19.74
2022-12-09T00:23:40.975Z,19.73
2022-12-09T00:24:40.982Z,19.73
2022-12-09T00:25:41.205Z,19.73
2022-12-09T00:26:40.985Z,19.73
2022-12-09T00:27:41.006Z,19.73
2022-12-09T00:28:41.043Z,19.73
2022-12-09T00:29:41.024Z,19.74
2022-12-09T00:30:41.131Z,19.71
2022-12-09T00:31:41.161Z,19.71
2022-12-09T00:32:41.306Z,19.71
2022-12-09T00:33:40.906Z,19.73
2022-12-09T00:34:41.122Z,19.73
2022-12-09T00:35:40.856Z,19.73
2022-12-09T00:36:41.017Z,19.73
2022-12-09T00:37:40.884Z,19.71
2022-12-09T00:38:40.910Z,19.74
2022-12-09T00:39:40.801Z,19.73
2022-12-09T00:40:40.818Z,19.73
2022-12-09T00:41:40.777Z,19.73
2022-12-09T00:42:40.879Z,19.74
2022-12-09T00:43:40.825Z,19.73
2022-12-09T00:44:40.934Z,19.74
2022-12-09T00:45:40.768Z,19.74
2022-12-09T00:46:41.135Z,19.76
2022-12-09T00:47:40.812Z,19.76
2022-12-09T00:48:40.767Z,19.76
2022-12-09T00:49:40.688Z,19.76
2022-12-09T00:50:40.738Z,19.76
2022-12-09T00:51:40.674Z,19.76
2022-12-09T00:52:40.701Z,19.76
2022-12-09T00:53:40.708Z,19.76
2022-12-09T00:54:40.804Z,19.76
2022-12-09T00:55:40.651Z,19.76
2022-12-09T00:56:40.887Z,19.78
2022-12-09T00:57:40.656Z,19.76
2022-12-09T00:58:40.618Z,19.77
2022-12-09T00:59:40.576Z,19.77
2022-12-09T01:00:40.569Z,19.76
2022-12-09T01:01:40.640Z,19.76
2022-12-09T01:02:40.778Z,19.76
2022-12-09T01:03:40.670Z,19.76
2022-12-09T01:04:40.684Z,19.78
2022-12-09T01:05:40.797Z,19.77
2022-12-09T01:06:40.503Z,19.77
2022-12-09T01:07:40.800Z,19.77
2022-12-09T01:08:42.450Z,19.77
2022-12-09T01:09:40.469Z,19.77
2022-12-09T01:10:40.752Z,19.77
2022-12-09T01:11:40.533Z,19.78
2022-12-09T01:12:40.699Z,19.77
2022-12-09T01:13:40.731Z,19.78
2022-12-09T01:14:40.631Z,19.77
2022-12-09T01:15:40.830Z,19.78
2022-12-09T01:16:40.523Z,19.77
2022-12-09T01:17:40.700Z,19.77
2022-12-09T01:18:40.373Z,19.77
2022-12-09T01:19:40.426Z,19.77
2022-12-09T01:20:40.455Z,19.77
2022-12-09T01:21:40.344Z,19.76
2022-12-09T01:22:40.369Z,19.76
2022-12-09T01:23:40.629Z,19.77
2022-12-09T01:24:40.600Z,19.76
2022-12-09T01:25:40.607Z,19.76
2022-12-09T01:26:40.290Z,19.77
2022-12-09T01:27:40.589Z,19.76
2022-12-09T01:28:40.409Z,19.76
2022-12-09T01:29:40.393Z,19.77
2022-12-09T01:30:40.277Z,19.77
2022-12-09T01:31:40.783Z,19.76
2022-12-09T01:32:40.331Z,19.74
2022-12-09T01:33:40.209Z,19.76
2022-12-09T01:34:40.390Z,19.76
2022-12-09T01:35:40.187Z,19.76
2022-12-09T01:36:40.262Z,19.76
2022-12-09T01:37:40.260Z,19.76
2022-12-09T01:38:40.211Z,19.76
2022-12-09T01:39:40.487Z,19.74
2022-12-09T01:40:40.239Z,19.74
2022-12-09T01:41:40.349Z,19.74
2022-12-09T01:42:40.380Z,19.76
2022-12-09T01:43:40.338Z,19.76
2022-12-09T01:44:40.360Z,19.76
2022-12-09T01:45:40.212Z,19.76
2022-12-09T01:46:40.258Z,19.76
2022-12-09T01:47:40.320Z,19.78
2022-12-09T01:48:40.392Z,19.77
2022-12-09T01:49:40.050Z,19.77
2022-12-09T01:50:40.079Z,19.77
2022-12-09T01:51:40.241Z,19.77
2022-12-09T01:52:40.126Z,19.78
2022-12-09T01:53:39.995Z,19.78
2022-12-09T01:54:40.096Z,19.78
2022-12-09T01:55:39.971Z,19.78
2022-12-09T01:56:39.962Z,19.78
2022-12-09T01:57:39.946Z,19.80
2022-12-09T01:58:39.968Z,19.80
2022-12-09T01:59:40.152Z,19.78
2022-12-09T02:00:39.985Z,19.80
2022-12-09T02:01:40.431Z,19.80
2022-12-09T02:02:40.114Z,19.78
2022-12-09T02:03:40.123Z,19.80
2022-12-09T02:04:40.347Z,19.81
2022-12-09T02:05:40.138Z,19.81
2022-12-09T02:06:39.933Z,19.81
2022-12-09T02:07:40.289Z,19.81
2022-12-09T02:08:40.266Z,19.81
2022-12-09T02:09:40.127Z,19.83
2022-12-09T02:10:40.259Z,19.81
2022-12-09T02:11:40.096Z,19.81
2022-12-09T02:12:39.775Z,19.83
2022-12-09T02:13:39.768Z,19.83
2022-12-09T02:14:39.805Z,19.83
2022-12-09T02:15:40.076Z,19.81
2022-12-09T02:16:40.079Z,19.83
2022-12-09T02:17:39.972Z,19.83
2022-12-09T02:18:39.778Z,19.83
2022-12-09T02:19:39.937Z,19.83
2022-12-09T02:20:39.810Z,19.83
2022-12-09T02:21:39.983Z,19.83
2022-12-09T02:22:39.755Z,19.83
2022-12-09T02:23:39.965Z,19.84
2022-12-09T02:24:39.952Z,19.83
2022-12-09T02:25:39.988Z,19.83
2022-12-09T02:26:39.751Z,19.83
2022-12-09T02:27:39.619Z,19.83
2022-12-09T02:28:39.640Z,19.83
2022-12-09T02:29:39.634Z,19.83
2022-12-09T02:30:39.598Z,19.81
2022-12-09T02:31:39.947Z,19.83
2022-12-09T02:32:40.092Z,19.83
2022-12-09T02:33:39.723Z,19.83
2022-12-09T02:34:39.571Z,19.83
2022-12-09T02:35:39.532Z,19.83
2022-12-09T02:36:39.524Z,19.83
2022-12-09T02:37:39.621Z,19.84
2022-12-09T02:38:39.504Z,19.83
2022-12-09T02:39:39.484Z,19.83
2022-12-09T02:40:39.714Z,19.81
2022-12-09T02:41:39.852Z,19.81
2022-12-09T02:42:39.456Z,19.81
2022-12-09T02:43:42.217Z,19.81
2022-12-09T02:44:39.494Z,19.83
2022-12-09T02:45:39.446Z,19.80
2022-12-09T02:46:39.625Z,19.80
2022-12-09T02:47:39.491Z,19.81
2022-12-09T02:48:39.584Z,19.81
2022-12-09T02:49:39.540Z,19.81
2022-12-09T02:50:39.364Z,19.80
2022-12-09T02:51:39.356Z,19.81
2022-12-09T02:52:39.540Z,19.83
2022-12-09T02:53:39.417Z,19.81
2022-12-09T02:54:39.665Z,19.83
2022-12-09T02:55:39.316Z,19.83
2022-12-09T02:56:39.517Z,19.81
2022-12-09T02:57:39.443Z,19.81
2022-12-09T02:58:39.330Z,19.83
2022-12-09T02:59:39.504Z,19.81
2022-12-09T03:00:39.486Z,19.83
2022-12-09T03:01:39.480Z,19.84
2022-12-09T03:02:39.551Z,19.83
2022-12-09T03:03:39.547Z,19.83
2022-12-09T03:04:39.347Z,19.84
2022-12-09T03:05:39.435Z,19.84
2022-12-09T03:06:39.189Z,19.84
2022-12-09T03:07:39.273Z,19.84
2022-12-09T03:08:39.559Z,19.84
2022-12-09T03:09:39.318Z,19.84
2022-12-09T03:10:39.368Z,19.86
2022-12-09T03:11:39.145Z,19.86
2022-12-09T03:12:39.129Z,19.86
2022-12-09T03:13:39.328Z,19.86
2022-12-09T03:14:39.471Z,19.86
2022-12-09T03:15:39.399Z,19.86
2022-12-09T03:16:39.277Z,19.87
2022-12-09T03:17:39.235Z,19.87
2022-12-09T03:18:39.169Z,19.86
2022-12-09T03:19:39.360Z,19.86
2022-12-09T03:20:39.288Z,19.87
2022-12-09T03:21:39.030Z,19.86
2022-12-09T03:22:39.329Z,19.86
2022-12-09T03:23:39.240Z,19.86
2022-12-09T03:24:39.075Z,19.86
2022-12-09T03:25:39.067Z,19.87
2022-12-09T03:26:39.025Z,19.86
2022-12-09T03:27:39.004Z,19.86
2022-12-09T03:28:38.978Z,19.87
2022-12-09T03:29:38.946Z,19.86
2022-12-09T03:30:39.139Z,19.86
2022-12-09T03:31:39.056Z,19.86
2022-12-09T03:32:39.263Z,19.86
2022-12-09T03:33:39.381Z,19.86
2022-12-09T03:34:38.910Z,19.84
2022-12-09T03:35:39.188Z,19.86
2022-12-09T03:36:39.113Z,19.86
2022-12-09T03:37:38.877Z,19.86
2022-12-09T03:38:38.853Z,19.84
2022-12-09T03:39:38.837Z,19.84
2022-12-09T03:40:38.911Z,19.84
2022-12-09T03:41:39.153Z,19.84
2022-12-09T03:42:38.870Z,19.84
2022-12-09T03:43:38.880Z,19.84
2022-12-09T03:44:39.141Z,19.86
2022-12-09T03:45:38.917Z,19.86
2022-12-09T03:46:38.893Z,19.86
2022-12-09T03:47:39.019Z,19.84
2022-12-09T03:48:38.969Z,19.86
2022-12-09T03:49:38.995Z,19.84
2022-12-09T03:50:38.780Z,19.84
2022-12-09T03:51:38.817Z,19.84
2022-12-09T03:52:39.093Z,19.84
2022-12-09T03:53:39.080Z,19.84
2022-12-09T03:54:38.711Z,19.86
2022-12-09T03:55:38.906Z,19.84
2022-12-09T03:56:38.688Z,19.83
2022-12-09T03:57:38.640Z,19.84
2022-12-09T03:58:38.749Z,19.84
2022-12-09T03:59:38.987Z,19.84
2022-12-09T04:00:38.611Z,19.83
2022-12-09T04:01:38.691Z,19.83
2022-12-09T04:02:38.747Z,19.83
2022-12-09T04:03:38.827Z,19.83
2022-12-09T04:04:38.696Z,19.83
2022-12-09T04:05:38.552Z,19.84
2022-12-09T04:06:38.616Z,19.84
2022-12-09T04:07:38.773Z,19.84
2022-12-09T04:08:38.981Z,19.84
2022-12-09T04:09:38.710Z,19.83
2022-12-09T04:10:38.772Z,19.86
2022-12-09T04:11:38.557Z,19.87
2022-12-09T04:12:38.472Z,19.86
2022-12-09T04:13:38.464Z,19.86
2022-12-09T04:14:38.533Z,19.86
2022-12-09T04:15:38.444Z,19.86
2022-12-09T04:16:38.784Z,19.84
2022-12-09T04:17:38.604Z,19.86
2022-12-09T04:18:38.596Z,19.86
2022-12-09T04:19:38.805Z,19.88
2022-12-09T04:20:38.388Z,19.87
2022-12-09T04:21:38.639Z,19.87
2022-12-09T04:22:38.404Z,19.87
2022-12-09T04:23:42.989Z,19.87
2022-12-09T04:24:38.354Z,19.88
2022-12-09T04:25:38.437Z,19.87
2022-12-09T04:26:38.330Z,19.88
2022-12-09T04:27:38.316Z,19.88
2022-12-09T04:28:38.332Z,19.88
2022-12-09T04:29:38.411Z,19.88
2022-12-09T04:30:38.405Z,19.88
2022-12-09T04:31:38.360Z,19.88
2022-12-09T04:32:38.298Z,19.87
2022-12-09T04:33:38.264Z,19.88
2022-12-09T04:34:38.384Z,19.88
2022-12-09T04:35:38.226Z,19.88
2022-12-09T04:36:38.605Z,19.88
2022-12-09T04:37:38.203Z,19.88
2022-12-09T04:38:38.518Z,19.88
2022-12-09T04:39:38.191Z,19.88
2022-12-09T04:40:38.557Z,19.87
2022-12-09T04:41:38.272Z,19.88
2022-12-09T04:42:38.489Z,19.88
2022-12-09T04:43:38.414Z,19.88
2022-12-09T04:44:38.133Z,19.88
2022-12-09T04:45:38.462Z,19.87
2022-12-09T04:46:38.175Z,19.88
2022-12-09T04:47:38.346Z,19.88
2022-12-09T04:48:38.131Z,19.88
2022-12-09T04:49:38.305Z,19.88
2022-12-09T04:50:38.065Z,19.88
2022-12-09T04:51:40.165Z,19.88
2022-12-09T04:52:38.089Z,19.91
2022-12-09T04:53:38.224Z,19.88
2022-12-09T04:54:38.021Z,19.87
2022-12-09T04:55:38.368Z,19.88
2022-12-09T04:56:38.249Z,19.88
2022-12-09T04:57:38.279Z,19.88
2022-12-09T04:58:38.014Z,19.87
2022-12-09T04:59:37.966Z,19.87
2022-12-09T05:00:38.283Z,19.87
2022-12-09T05:01:38.250Z,19.88
2022-12-09T05:02:38.222Z,19.86
2022-12-09T05:03:38.197Z,19.86
2022-12-09T05:04:38.583Z,19.88
2022-12-09T05:05:38.220Z,19.88
2022-12-09T05:06:38.048Z,19.87
2022-12-09T05:07:38.106Z,19.87
2022-12-09T05:08:38.429Z,19.88
2022-12-09T05:09:37.973Z,19.88
2022-12-09T05:10:38.265Z,19.91
2022-12-09T05:11:38.191Z,19.92
2022-12-09T05:12:37.851Z,19.92
2022-12-09T05:13:38.148Z,19.95
2022-12-09T05:14:37.929Z,19.96
2022-12-09T05:15:37.927Z,19.99
2022-12-09T05:16:38.015Z,20.02
2022-12-09T05:17:37.898Z,20.01
2022-12-09T05:18:38.229Z,19.99
2022-12-09T05:19:37.863Z,19.98
2022-12-09T05:20:37.985Z,19.98
2022-12-09T05:21:37.965Z,19.95
2022-12-09T05:22:38.009Z,19.95
2022-12-09T05:23:38.011Z,19.95
2022-12-09T05:24:37.771Z,19.96
2022-12-09T05:25:37.919Z,19.98
2022-12-09T05:26:37.903Z,19.96
2022-12-09T05:27:37.728Z,19.95
2022-12-09T05:28:37.817Z,19.96
2022-12-09T05:29:37.967Z,19.98
2022-12-09T05:30:37.767Z,19.96
2022-12-09T05:31:37.808Z,19.96
2022-12-09T05:32:37.891Z,19.98
2022-12-09T05:33:37.840Z,19.99
2022-12-09T05:34:38.136Z,19.99
2022-12-09T05:35:47.666Z,19.98
2022-12-09T05:36:37.639Z,19.96
2022-12-09T05:37:37.877Z,19.96
2022-12-09T05:38:37.633Z,19.98
2022-12-09T05:39:37.541Z,19.99
2022-12-09T05:40:37.608Z,19.99
2022-12-09T05:41:37.900Z,19.98
2022-12-09T05:42:41.332Z,19.99
2022-12-09T05:43:37.757Z,19.99
2022-12-09T05:44:37.516Z,19.99
2022-12-09T05:45:37.851Z,19.99
2022-12-09T05:46:37.641Z,19.99
2022-12-09T05:47:37.606Z,19.99
2022-12-09T05:48:37.654Z,20.01
2022-12-09T05:49:38.019Z,19.99
2022-12-09T05:50:37.782Z,20.01
2022-12-09T05:51:37.445Z,19.99
2022-12-09T05:52:37.791Z,19.98
2022-12-09T05:53:37.452Z,19.98
2022-12-09T05:54:37.566Z,19.98
2022-12-09T05:55:37.567Z,19.98
2022-12-09T05:56:39.454Z,19.98
2022-12-09T05:57:37.469Z,19.98
2022-12-09T05:58:37.477Z,19.96
2022-12-09T05:59:37.678Z,19.98
2022-12-09T06:00:37.610Z,19.99
2022-12-09T06:01:37.601Z,19.98
2022-12-09T06:02:37.508Z,19.98
2022-12-09T06:03:37.792Z,19.96
2022-12-09T06:04:37.651Z,19.98
2022-12-09T06:05:37.575Z,19.96
2022-12-09T06:06:37.863Z,19.96
2022-12-09T06:07:37.649Z,19.96
2022-12-09T06:08:37.490Z,19.96
2022-12-09T06:09:37.386Z,19.96
2022-12-09T06:10:37.323Z,19.96
2022-12-09T06:11:37.625Z,19.98
2022-12-09T06:12:37.743Z,19.98
2022-12-09T06:13:37.253Z,19.96
2022-12-09T06:14:37.193Z,19.98
2022-12-09T06:15:37.411Z,19.98
2022-12-09T06:16:37.465Z,19.99
2022-12-09T06:17:37.323Z,19.98
2022-12-09T06:18:37.618Z,19.99
2022-12-09T06:19:37.685Z,20.01
2022-12-09T06:20:37.107Z,19.98
2022-12-09T06:21:37.102Z,19.99
2022-12-09T06:22:37.091Z,19.99
2022-12-09T06:23:37.327Z,20.01
2022-12-09T06:24:37.112Z,20.01
2022-12-09T06:25:37.110Z,19.99
2022-12-09T06:26:37.023Z,20.01
2022-12-09T06:27:37.293Z,20.01
2022-12-09T06:28:37.220Z,20.01
2022-12-09T06:29:37.229Z,20.01
2022-12-09T06:30:37.239Z,20.02
2022-12-09T06:31:37.248Z,20.01
2022-12-09T06:32:37.472Z,20.02
2022-12-09T06:33:54.161Z,20.03
2022-12-09T06:34:37.241Z,20.02
2022-12-09T06:35:37.232Z,20.02
2022-12-09T06:36:36.927Z,20.02
2022-12-09T06:37:36.910Z,20.03
2022-12-09T06:38:37.061Z,20.03
2022-12-09T06:39:37.030Z,20.03
2022-12-09T06:40:37.012Z,20.02
2022-12-09T06:41:37.246Z,20.02
2022-12-09T06:42:36.986Z,20.03
2022-12-09T06:43:36.956Z,20.03
2022-12-09T06:44:37.194Z,20.03
2022-12-09T06:45:37.197Z,20.03
2022-12-09T06:46:36.964Z,20.05
2022-12-09T06:47:37.269Z,20.05
2022-12-09T06:48:37.235Z,20.03
2022-12-09T06:49:36.967Z,20.03
2022-12-09T06:50:37.044Z,20.02
2022-12-09T06:51:36.978Z,20.02
2022-12-09T06:52:37.032Z,20.03
2022-12-09T06:53:36.858Z,20.02
2022-12-09T06:54:37.092Z,20.02
2022-12-09T06:55:36.780Z,20.01
2022-12-09T06:56:36.771Z,20.02
2022-12-09T06:57:36.958Z,20.02
2022-12-09T06:58:36.748Z,20.02
2022-12-09T06:59:36.978Z,20.02
2022-12-09T07:00:36.914Z,20.01
2022-12-09T07:01:36.826Z,20.02
2022-12-09T07:02:37.256Z,20.02
2022-12-09T07:03:36.871Z,19.99
2022-12-09T07:04:37.368Z,20.01
2022-12-09T07:05:37.182Z,20.01
2022-12-09T07:06:37.199Z,20.01
2022-12-09T07:07:36.826Z,19.99
2022-12-09T07:08:37.051Z,19.98
2022-12-09T07:09:36.978Z,19.99
2022-12-09T07:10:36.990Z,19.98
2022-12-09T07:11:36.804Z,19.99
2022-12-09T07:12:36.591Z,19.98
2022-12-09T07:13:36.875Z,19.98
2022-12-09T07:14:36.950Z,19.98
2022-12-09T07:15:36.558Z,19.98
2022-12-09T07:16:36.768Z,19.98
2022-12-09T07:17:37.007Z,19.98
2022-12-09T07:18:36.685Z,19.96
2022-12-09T07:19:36.564Z,19.96
2022-12-09T07:20:36.764Z,19.96
2022-12-09T07:21:36.613Z,19.95
2022-12-09T07:22:36.536Z,19.96
2022-12-09T07:23:36.480Z,19.95
2022-12-09T07:24:36.479Z,19.96
2022-12-09T07:25:36.690Z,19.95
2022-12-09T07:26:36.499Z,19.95
2022-12-09T07:27:36.869Z,19.94
2022-12-09T07:28:36.471Z,19.95
2022-12-09T07:29:36.657Z,19.94
2022-12-09T07:30:36.764Z,19.94
2022-12-09T07:31:36.535Z,19.92
2022-12-09T07:32:36.709Z,19.92
2022-12-09T07:33:36.617Z,19.91
2022-12-09T07:34:36.528Z,19.91
2022-12-09T07:35:36.502Z,19.91
2022-12-09T07:36:36.708Z,19.91
2022-12-09T07:37:36.320Z,19.91
2022-12-09T07:38:36.447Z,19.88
2022-12-09T07:39:36.336Z,19.88
2022-12-09T07:40:36.450Z,19.91
2022-12-09T07:41:36.281Z,19.92
2022-12-09T07:42:36.640Z,19.91
2022-12-09T07:43:36.217Z,19.88
2022-12-09T07:44:36.520Z,19.88
2022-12-09T07:45:36.575Z,19.88
2022-12-09T07:46:36.458Z,19.88
2022-12-09T07:47:36.697Z,19.91
2022-12-09T07:48:36.302Z,19.92
2022-12-09T07:49:36.580Z,19.88
2022-12-09T07:50:36.427Z,19.91
2022-12-09T07:51:36.342Z,19.91
2022-12-09T07:52:36.376Z,19.88
2022-12-09T07:53:36.562Z,19.92
2022-12-09T07:54:36.418Z,19.91
2022-12-09T07:55:36.164Z,19.91
2022-12-09T07:56:36.080Z,19.91
2022-12-09T07:57:38.460Z,19.91
2022-12-09T07:58:36.377Z,19.91
2022-12-09T07:59:36.087Z,19.91
2022-12-09T08:00:36.021Z,19.88
2022-12-09T08:01:36.408Z,19.88
2022-12-09T08:02:36.068Z,19.91
2022-12-09T08:03:36.200Z,19.91
2022-12-09T08:04:36.515Z,19.91
2022-12-09T08:05:36.641Z,19.92
2022-12-09T08:06:36.241Z,19.92
2022-12-09T08:07:40.687Z,19.91
2022-12-09T08:08:36.137Z,19.92
2022-12-09T08:09:36.182Z,19.92
2022-12-09T08:10:36.262Z,19.91
2022-12-09T08:11:36.092Z,19.92
2022-12-09T08:12:36.259Z,19.92
2022-12-09T08:13:36.042Z,19.88
2022-12-09T08:14:36.076Z,19.92
2022-12-09T08:15:35.887Z,19.91
2022-12-09T08:16:36.111Z,19.92
2022-12-09T08:17:36.036Z,19.92
2022-12-09T08:18:35.978Z,19.92
2022-12-09T08:19:36.304Z,19.91
2022-12-09T08:20:36.293Z,19.92
2022-12-09T08:21:36.064Z,19.92
2022-12-09T08:22:35.966Z,19.92
2022-12-09T08:23:36.320Z,19.92
2022-12-09T08:24:36.094Z,19.92
2022-12-09T08:25:35.964Z,19.92
2022-12-09T08:26:35.958Z,19.92
2022-12-09T08:27:35.917Z,19.92
2022-12-09T08:28:35.905Z,19.92
2022-12-09T08:29:35.974Z,19.92
2022-12-09T08:30:36.016Z,19.91
2022-12-09T08:31:40.625Z,19.91
2022-12-09T08:32:35.818Z,19.88
2022-12-09T08:33:35.899Z,19.91
2022-12-09T08:34:35.936Z,19.92
2022-12-09T08:35:35.613Z,19.91
2022-12-09T08:36:35.637Z,19.88
2022-12-09T08:37:35.765Z,19.91
2022-12-09T08:38:35.776Z,19.91
2022-12-09T08:39:35.684Z,19.88
2022-12-09T08:40:35.664Z,19.87
2022-12-09T08:41:36.290Z,19.88
2022-12-09T08:42:35.941Z,19.88
2022-12-09T08:43:35.643Z,19.86
2022-12-09T08:44:35.577Z,19.87
2022-12-09T08:45:35.746Z,19.87
2022-12-09T08:46:35.780Z,19.86
2022-12-09T08:47:35.632Z,19.87
2022-12-09T08:48:35.646Z,19.87
2022-12-09T08:49:35.741Z,19.87
2022-12-09T08:50:35.536Z,19.87
2022-12-09T08:51:35.859Z,19.87
2022-12-09T08:52:40.288Z,19.87
2022-12-09T08:53:35.774Z,19.86
2022-12-09T08:54:35.781Z,19.86
2022-12-09T08:55:35.517Z,19.86
2022-12-09T08:56:35.512Z,19.86
2022-12-09T08:57:35.932Z,19.86
2022-12-09T08:58:35.583Z,19.84
2022-12-09T08:59:40.031Z,19.84
2022-12-09T09:00:35.734Z,19.84
2022-12-09T09:01:36.019Z,19.84
2022-12-09T09:02:35.602Z,19.86
2022-12-09T09:03:35.621Z,19.84
2022-12-09T09:04:35.927Z,19.84
2022-12-09T09:05:35.752Z,19.84
2022-12-09T09:06:35.623Z,19.84
2022-12-09T09:07:35.564Z,19.84
2022-12-09T09:08:35.737Z,19.83
2022-12-09T09:09:35.541Z,19.84
2022-12-09T09:10:35.801Z,19.83
2022-12-09T09:11:35.582Z,19.83
2022-12-09T09:12:42.004Z,19.84
2022-12-09T09:13:35.404Z,19.84
2022-12-09T09:14:35.615Z,19.83
2022-12-09T09:15:35.315Z,19.84
2022-12-09T09:16:35.517Z,19.84
2022-12-09T09:17:35.759Z,19.86
2022-12-09T09:18:35.236Z,19.84
2022-12-09T09:19:35.352Z,19.86
2022-12-09T09:20:35.179Z,19.84
2022-12-09T09:21:35.746Z,19.84
2022-12-09T09:22:35.297Z,19.86
2022-12-09T09:23:35.365Z,19.83
2022-12-09T09:24:35.186Z,19.84
2022-12-09T09:25:35.189Z,19.84
2022-12-09T09:26:35.125Z,19.83
2022-12-09T09:27:35.365Z,19.86
2022-12-09T09:28:35.471Z,19.86
2022-12-09T09:29:35.086Z,19.86
2022-12-09T09:30:35.522Z,19.86
2022-12-09T09:31:35.178Z,19.86
2022-12-09T09:32:35.395Z,19.86
2022-12-09T09:33:35.189Z,19.86
2022-12-09T09:34:35.290Z,19.84
2022-12-09T09:35:35.443Z,19.86
2022-12-09T09:36:35.490Z,19.84
2022-12-09T09:37:34.994Z,19.86
2022-12-09T09:38:35.337Z,19.86
2022-12-09T09:39:34.907Z,19.86
2022-12-09T09:40:35.391Z,19.86
2022-12-09T09:41:35.049Z,19.86
2022-12-09T09:42:35.148Z,19.84
2022-12-09T09:43:34.990Z,19.84
2022-12-09T09:44:35.315Z,19.84
2022-12-09T09:45:34.866Z,19.84
2022-12-09T09:46:35.097Z,19.86
2022-12-09T09:47:38.684Z,19.87
2022-12-09T09:48:35.077Z,19.86
2022-12-09T09:49:35.352Z,19.84
2022-12-09T09:50:35.291Z,19.84
2022-12-09T09:51:35.070Z,19.84
2022-12-09T09:52:34.940Z,19.84
2022-12-09T09:53:34.907Z,19.84
2022-12-09T09:54:35.068Z,19.84
2022-12-09T09:55:34.860Z,19.86
2022-12-09T09:56:35.248Z,19.84
2022-12-09T09:57:34.767Z,19.84
2022-12-09T09:58:35.083Z,19.86
2022-12-09T09:59:34.972Z,19.84
2022-12-09T10:00:35.184Z,19.84
2022-12-09T10:01:34.990Z,19.84
2022-12-09T10:02:35.325Z,19.83
2022-12-09T10:03:34.980Z,19.83
2022-12-09T10:04:34.892Z,19.81
2022-12-09T10:05:34.921Z,19.81
2022-12-09T10:06:35.327Z,19.81
2022-12-09T10:07:35.326Z,19.81
2022-12-09T10:08:34.963Z,19.83
2022-12-09T10:09:35.165Z,19.81
2022-12-09T10:10:34.942Z,19.80
2022-12-09T10:11:35.198Z,19.81
2022-12-09T10:12:34.945Z,19.81
2022-12-09T10:13:35.312Z,19.81
2022-12-09T10:14:35.156Z,19.81
2022-12-09T10:15:34.980Z,19.81
2022-12-09T10:16:34.857Z,19.80
2022-12-09T10:17:35.089Z,19.81
2022-12-09T10:18:34.700Z,19.80
2022-12-09T10:19:34.652Z,19.78
2022-12-09T10:20:34.996Z,19.80
2022-12-09T10:21:34.802Z,19.80
2022-12-09T10:22:34.656Z,19.78
2022-12-09T10:23:34.599Z,19.78
2022-12-09T10:24:39.999Z,19.78
2022-12-09T10:25:34.680Z,19.80
2022-12-09T10:26:34.565Z,19.78
2022-12-09T10:27:34.371Z,19.78
2022-12-09T10:28:34.592Z,19.78
2022-12-09T10:29:34.411Z,19.78
2022-12-09T10:30:41.748Z,19.78
2022-12-09T10:31:34.454Z,19.77
2022-12-09T10:32:34.549Z,19.78
2022-12-09T10:33:34.511Z,19.77
2022-12-09T10:34:34.807Z,19.76
2022-12-09T10:35:34.707Z,19.76
2022-12-09T10:36:36.580Z,19.77
2022-12-09T10:37:34.559Z,19.77
2022-12-09T10:38:34.367Z,19.76
2022-12-09T10:39:34.330Z,19.76
2022-12-09T10:40:34.325Z,19.76
2022-12-09T10:41:34.348Z,19.76
2022-12-09T10:42:35.405Z,19.74
2022-12-09T10:43:34.476Z,19.74
2022-12-09T10:44:34.277Z,19.74
2022-12-09T10:46:07.911Z,19.74
2022-12-09T10:46:34.412Z,19.73
2022-12-09T10:47:34.259Z,19.73
2022-12-09T10:48:34.548Z,19.71
2022-12-09T10:49:34.273Z,19.73
2022-12-09T10:50:34.379Z,19.71
2022-12-09T10:51:34.164Z,19.73
2022-12-09T10:52:34.296Z,19.71
2022-12-09T10:53:34.618Z,19.69
2022-12-09T10:54:34.278Z,19.71
2022-12-09T10:55:34.338Z,19.73
2022-12-09T10:56:34.245Z,19.69
2022-12-09T10:57:34.165Z,19.71
2022-12-09T10:58:34.110Z,19.71
2022-12-09T10:59:34.079Z,19.69
2022-12-09T11:00:35.183Z,19.69
2022-12-09T11:01:34.563Z,19.69
2022-12-09T11:02:34.084Z,19.69
2022-12-09T11:03:34.380Z,19.71
2022-12-09T11:04:34.459Z,19.69
2022-12-09T11:05:34.609Z,19.69
2022-12-09T11:06:34.248Z,19.69
2022-12-09T11:07:34.179Z,19.69
2022-12-09T11:08:34.472Z,19.68
2022-12-09T11:09:34.586Z,19.69
2022-12-09T11:10:34.386Z,19.69
2022-12-09T11:11:34.035Z,19.69
2022-12-09T11:12:40.636Z,19.69
2022-12-09T11:13:34.426Z,19.69
2022-12-09T11:14:34.192Z,19.69
2022-12-09T11:15:34.054Z,19.68
2022-12-09T11:16:34.546Z,19.68
2022-12-09T11:17:34.051Z,19.69
2022-12-09T11:18:33.933Z,19.68
2022-12-09T11:19:34.118Z,19.68
2022-12-09T11:20:33.936Z,19.68
2022-12-09T11:21:34.301Z,19.68
2022-12-09T11:22:34.439Z,19.68
2022-12-09T11:23:33.896Z,19.68
2022-12-09T11:24:33.983Z,19.68
2022-12-09T11:25:33.859Z,19.69
2022-12-09T11:26:33.819Z,19.69
2022-12-09T11:27:33.962Z,19.69
2022-12-09T11:28:33.778Z,19.71
2022-12-09T11:29:33.786Z,19.71
2022-12-09T11:30:34.157Z,19.71
2022-12-09T11:31:34.278Z,19.71
2022-12-09T11:32:33.934Z,19.71
2022-12-09T11:33:34.143Z,19.71
2022-12-09T11:34:34.286Z,19.71
2022-12-09T11:35:34.118Z,19.71
2022-12-09T11:36:35.411Z,19.71
2022-12-09T11:37:33.603Z,19.71
2022-12-09T11:38:33.575Z,19.73
2022-12-09T11:39:33.573Z,19.71
2022-12-09T11:40:33.605Z,19.73
2022-12-09T11:41:33.540Z,19.73
2022-12-09T11:42:33.533Z,19.73
2022-12-09T11:43:33.516Z,19.73
2022-12-09T11:44:33.509Z,19.74
2022-12-09T11:45:33.500Z,19.71
2022-12-09T11:46:33.678Z,19.73
2022-12-09T11:47:50.463Z,19.74
2022-12-09T11:48:37.532Z,19.74
2022-12-09T11:49:33.462Z,19.74
2022-12-09T11:50:33.615Z,19.74
2022-12-09T11:51:33.436Z,19.74
2022-12-09T11:52:33.463Z,19.74
2022-12-09T11:53:33.413Z,19.74
2022-12-09T11:54:33.396Z,19.74
2022-12-09T11:55:33.389Z,19.76
2022-12-09T11:56:33.381Z,19.76
2022-12-09T11:57:33.373Z,19.74
2022-12-09T11:58:33.385Z,19.76
2022-12-09T11:59:37.802Z,19.76
2022-12-09T12:00:33.334Z,19.76
2022-12-09T12:01:33.404Z,19.76
2022-12-09T12:02:33.309Z,19.76
2022-12-09T12:03:33.345Z,19.77
2022-12-09T12:04:33.320Z,19.76
2022-12-09T12:05:33.281Z,19.76
2022-12-09T12:06:33.270Z,19.76
2022-12-09T12:07:33.254Z,19.76
2022-12-09T12:08:33.421Z,19.76
2022-12-09T12:09:33.237Z,19.76
2022-12-09T12:10:33.247Z,19.74
2022-12-09T12:11:33.210Z,19.77
2022-12-09T12:12:33.211Z,19.76
2022-12-09T12:13:33.186Z,19.76
2022-12-09T12:14:33.181Z,19.77
2022-12-09T12:15:33.169Z,19.77
2022-12-09T12:16:39.095Z,19.76
2022-12-09T12:17:33.199Z,19.77
2022-12-09T12:18:33.134Z,19.76
2022-12-09T12:19:33.122Z,19.76
2022-12-09T12:20:33.113Z,19.76
2022-12-09T12:21:33.101Z,19.77
2022-12-09T12:22:33.122Z,19.77
2022-12-09T12:23:33.079Z,19.76
2022-12-09T12:24:33.070Z,19.76
2022-12-09T12:25:33.054Z,19.76
2022-12-09T12:26:33.070Z,19.77
2022-12-09T12:27:33.081Z,19.77
2022-12-09T12:28:33.046Z,19.77
2022-12-09T12:29:33.005Z,19.77
2022-12-09T12:30:33.001Z,19.76
2022-12-09T12:31:33.026Z,19.76
2022-12-09T12:32:32.979Z,19.77
2022-12-09T12:34:38.902Z,19.77
2022-12-09T12:35:32.950Z,19.77
2022-12-09T12:36:32.938Z,19.77
2022-12-09T12:37:32.923Z,19.77
2022-12-09T12:38:32.906Z,19.77
2022-12-09T12:39:32.898Z,19.77
2022-12-09T12:40:32.921Z,19.74
2022-12-09T12:41:32.870Z,19.76
2022-12-09T12:42:32.868Z,19.76
2022-12-09T12:43:32.858Z,19.76
2022-12-09T12:44:32.859Z,19.74
2022-12-09T12:45:32.928Z,19.76
2022-12-09T12:46:32.941Z,19.74
2022-12-09T12:47:32.818Z,19.76
2022-12-09T12:48:32.868Z,19.74
2022-12-09T12:49:32.790Z,19.73
2022-12-09T12:50:32.795Z,19.74
2022-12-09T12:51:33.786Z,19.74
2022-12-09T12:52:54.855Z,19.73
2022-12-09T12:53:32.751Z,19.73